Time;durP1;ratioP1;P1;durP2;ratioP2;P2;SDS_P1;SDS_P2;PMS_P1;PMS_P2;Temp;Humidity;BMP_temperature;BMP_pressure;BME280_temperature;BME280_humidity;BME280_pressure;Samples;Min_cycle;Max_cycle;Signal;HPM_P1;HPM_P2
2021/07/10 00:02:15;;;;;;;;;;;16.00;99.90;;;;;;6283689;22;20243;-80
2021/07/10 00:04:41;;;;;;;;;;;16.00;99.90;;;;;;6337582;22;19914;-82
2021/07/10 00:07:07;;;;;;;;;;;16.00;99.90;;;;;;6320114;22;20350;-80
2021/07/10 00:09:33;;;;;;;;;;;16.00;99.90;;;;;;6346578;22;19963;-80
2021/07/10 00:11:59;;;;;;;;;;;16.00;99.90;;;;;;6306135;22;19914;-78
2021/07/10 00:14:25;;;;;;;;;;;16.00;99.90;;;;;;6306069;22;19946;-81
2021/07/10 00:16:51;;;;;;;;;;;15.90;99.90;;;;;;6333381;22;20306;-79
2021/07/10 00:19:16;;;;;;;;;;;15.90;99.90;;;;;;6337886;22;19985;-81
2021/07/10 00:21:42;;;;;;;;;;;15.90;99.90;;;;;;6343518;22;19925;-82
2021/07/10 00:24:08;;;;;;;;;;;15.90;99.90;;;;;;6315839;22;20283;-81
2021/07/10 00:26:33;;;;;;;;;;;15.80;99.90;;;;;;6307107;22;20344;-79
2021/07/10 00:29:00;;;;;;;;;;;15.80;99.90;;;;;;6304987;22;19922;-82
2021/07/10 00:31:25;;;;;;;;;;;15.70;99.90;;;;;;6345997;22;20086;-81
2021/07/10 00:33:51;;;;;;;;;;;15.70;99.90;;;;;;6307462;22;20021;-81
2021/07/10 00:36:17;;;;;;;;;;;15.70;99.90;;;;;;6280021;22;19914;-81
2021/07/10 00:38:42;;;;;;;;;;;15.70;99.90;;;;;;6315805;22;19929;-81
2021/07/10 00:41:08;;;;;;;;;;;15.70;99.90;;;;;;6305311;22;19910;-81
2021/07/10 00:43:34;;;;;;;;;;;15.60;99.90;;;;;;6344949;22;20379;-81
2021/07/10 00:45:59;;;;;;;;;;;15.60;99.90;;;;;;6280292;22;19913;-81
2021/07/10 00:48:25;;;;;;;;;;;15.60;99.90;;;;;;6333776;22;19937;-81
2021/07/10 00:50:51;;;;;;;;;;;15.50;99.90;;;;;;6316666;22;20311;-81
2021/07/10 00:53:16;;;;;;;;;;;15.60;99.90;;;;;;6280030;22;19910;-80
2021/07/10 00:55:42;;;;;;;;;;;15.50;99.90;;;;;;6344012;22;19993;-79
2021/07/10 00:58:09;;;;;;;;;;;15.50;99.90;;;;;;6306347;22;19917;-79
2021/07/10 01:00:35;;;;;;;;;;;15.50;99.90;;;;;;6305555;22;19914;-79
2021/07/10 01:03:01;;;;;;;;;;;15.50;99.90;;;;;;6306153;22;19919;-79
2021/07/10 01:05:27;;;;;;;;;;;15.50;99.90;;;;;;6306599;22;20281;-79
2021/07/10 01:07:53;;;;;;;;;;;15.50;99.90;;;;;;6343545;22;19921;-79
2021/07/10 01:10:19;;;;;;;;;;;15.50;99.90;;;;;;6320590;22;19910;-79
2021/07/10 01:12:46;;;;;;;;;;;15.50;99.90;;;;;;6307765;22;19914;-80
2021/07/10 01:15:14;;;;;;;;;;;15.40;99.90;;;;;;6306628;22;19919;-80
2021/07/10 01:17:42;;;;;;;;;;;15.40;99.90;;;;;;6303647;22;19911;-80
2021/07/10 01:20:09;;;;;;;;;;;15.40;99.90;;;;;;6307070;22;20443;-80
2021/07/10 01:22:35;;;;;;;;;;;15.40;99.90;;;;;;6335936;22;20033;-80
2021/07/10 01:25:01;;;;;;;;;;;15.40;99.90;;;;;;6347290;22;20284;-80
2021/07/10 01:27:27;;;;;;;;;;;15.40;99.90;;;;;;6306564;22;20001;-80
2021/07/10 01:29:52;;;;;;;;;;;15.30;99.90;;;;;;6334677;22;19991;-80
2021/07/10 01:32:18;;;;;;;;;;;15.30;99.90;;;;;;6318057;22;19937;-80
2021/07/10 01:34:45;;;;;;;;;;;15.30;99.90;;;;;;6306533;22;19921;-80
2021/07/10 01:37:12;;;;;;;;;;;15.30;99.90;;;;;;6307294;22;19949;-80
2021/07/10 01:39:38;;;;;;;;;;;15.30;99.90;;;;;;6281266;22;20254;-80
2021/07/10 01:42:03;;;;;;;;;;;15.20;99.90;;;;;;6317636;22;19914;-80
2021/07/10 01:44:29;;;;;;;;;;;15.20;99.90;;;;;;6319023;22;19993;-80
2021/07/10 01:46:55;;;;;;;;;;;15.20;99.90;;;;;;6317870;22;19918;-81
2021/07/10 01:49:20;;;;;;;;;;;15.20;99.90;;;;;;6283036;22;20323;-81
2021/07/10 01:51:46;;;;;;;;;;;15.20;99.90;;;;;;6307455;22;19963;-80
2021/07/10 01:54:12;;;;;;;;;;;15.10;99.90;;;;;;6346548;22;19915;-81
2021/07/10 01:56:37;;;;;;;;;;;15.10;99.90;;;;;;6308055;22;19914;-80
2021/07/10 01:59:03;;;;;;;;;;;15.00;99.90;;;;;;6307372;22;20591;-80
2021/07/10 02:01:29;;;;;;;;;;;15.00;99.90;;;;;;6280628;22;20337;-80
2021/07/10 02:03:55;;;;;;;;;;;14.90;99.90;;;;;;6341500;22;20376;-80
2021/07/10 02:06:22;;;;;;;;;;;15.00;99.90;;;;;;6308738;22;19914;-80
2021/07/10 02:08:48;;;;;;;;;;;14.90;99.90;;;;;;6333359;22;19910;-80
2021/07/10 02:11:14;;;;;;;;;;;14.90;99.90;;;;;;6331713;22;19914;-80
2021/07/10 02:13:40;;;;;;;;;;;14.80;99.90;;;;;;6352729;22;19967;-81
2021/07/10 02:16:06;;;;;;;;;;;14.80;99.90;;;;;;6322974;22;20017;-80
2021/07/10 02:18:31;;;;;;;;;;;14.70;99.90;;;;;;6317800;22;20008;-80
2021/07/10 02:20:57;;;;;;;;;;;14.60;99.90;;;;;;6308975;22;20286;-80
2021/07/10 02:23:23;;;;;;;;;;;14.60;99.90;;;;;;6345296;22;19918;-81
2021/07/10 02:25:48;;;;;;;;;;;14.60;99.90;;;;;;6281669;22;19914;-81
2021/07/10 02:28:14;;;;;;;;;;;14.50;99.90;;;;;;6308656;22;19980;-81
2021/07/10 02:30:40;;;;;;;;;;;14.50;99.90;;;;;;6319166;22;19914;-80
2021/07/10 02:33:06;;;;;;;;;;;14.50;99.90;;;;;;6336802;22;19976;-80
2021/07/10 02:35:32;;;;;;;;;;;14.50;99.90;;;;;;6308971;22;19914;-81
2021/07/10 02:37:58;;;;;;;;;;;14.40;99.90;;;;;;6346755;22;20327;-81
2021/07/10 02:40:24;;;;;;;;;;;14.40;99.90;;;;;;6336747;22;19914;-80
2021/07/10 02:42:50;;;;;;;;;;;14.40;99.90;;;;;;6347001;22;19949;-81
2021/07/10 02:45:16;;;;;;;;;;;14.40;99.90;;;;;;6319150;22;19921;-80
2021/07/10 02:47:42;;;;;;;;;;;14.20;99.90;;;;;;6337394;22;19910;-81
2021/07/10 02:50:28;;;;;;;;;;;14.30;99.90;;;;;;6350007;22;19938;-80
2021/07/10 02:52:54;;;;;;;;;;;14.20;99.90;;;;;;6337493;22;19910;-81
2021/07/10 02:55:20;;;;;;;;;;;14.20;99.90;;;;;;6317156;22;19910;-80
2021/07/10 02:57:46;;;;;;;;;;;14.10;99.90;;;;;;6345569;22;19945;-81
2021/07/10 03:00:13;;;;;;;;;;;14.00;99.90;;;;;;6320579;22;19917;-81
2021/07/10 03:02:39;;;;;;;;;;;14.10;99.90;;;;;;6283460;22;20342;-81
2021/07/10 03:05:07;;;;;;;;;;;14.00;99.90;;;;;;6339243;22;19919;-81
2021/07/10 03:07:35;;;;;;;;;;;14.10;99.90;;;;;;6348631;22;19914;-81
2021/07/10 03:10:00;;;;;;;;;;;14.10;99.90;;;;;;6310111;22;19911;-80
2021/07/10 03:12:26;;;;;;;;;;;14.00;99.90;;;;;;6338699;22;19989;-80
2021/07/10 03:14:52;;;;;;;;;;;14.00;99.90;;;;;;6311149;22;20293;-81
2021/07/10 03:17:18;;;;;;;;;;;14.00;99.90;;;;;;6310151;22;19914;-80
2021/07/10 03:19:44;;;;;;;;;;;14.10;99.90;;;;;;6309909;22;19915;-80
2021/07/10 03:22:09;;;;;;;;;;;14.10;99.90;;;;;;6309981;22;19911;-81
2021/07/10 03:24:35;;;;;;;;;;;14.10;99.90;;;;;;6309326;22;19918;-81
2021/07/10 03:27:01;;;;;;;;;;;14.10;99.90;;;;;;6320615;22;19986;-81
2021/07/10 03:29:26;;;;;;;;;;;14.20;99.90;;;;;;6348629;22;20448;-81
2021/07/10 03:31:52;;;;;;;;;;;14.10;99.90;;;;;;6283767;22;19936;-81
2021/07/10 03:34:18;;;;;;;;;;;14.20;99.90;;;;;;6337472;22;19914;-81
2021/07/10 03:36:43;;;;;;;;;;;14.20;99.90;;;;;;6337767;22;19946;-81
2021/07/10 03:39:09;;;;;;;;;;;14.20;99.90;;;;;;6310325;22;19997;-80
2021/07/10 03:41:34;;;;;;;;;;;14.30;99.90;;;;;;6321194;22;19963;-80
2021/07/10 03:44:00;;;;;;;;;;;14.30;99.90;;;;;;6310809;22;20323;-80
2021/07/10 03:46:26;;;;;;;;;;;14.30;99.90;;;;;;6321049;22;20387;-81
2021/07/10 03:48:53;;;;;;;;;;;14.20;99.90;;;;;;6310518;22;19910;-81
2021/07/10 03:51:19;;;;;;;;;;;14.20;99.90;;;;;;6338424;22;19997;-81
2021/07/10 03:53:44;;;;;;;;;;;14.20;99.90;;;;;;6284875;22;20011;-81
2021/07/10 03:56:10;;;;;;;;;;;14.20;99.90;;;;;;6338576;22;19960;-81
2021/07/10 03:58:35;;;;;;;;;;;14.10;99.90;;;;;;6338265;22;20302;-81
2021/07/10 04:01:01;;;;;;;;;;;14.20;99.90;;;;;;6310139;22;19914;-80
2021/07/10 04:03:27;;;;;;;;;;;14.20;99.90;;;;;;6345824;22;19960;-81
2021/07/10 04:05:52;;;;;;;;;;;14.30;99.90;;;;;;6310613;22;19911;-81
2021/07/10 04:08:18;;;;;;;;;;;14.40;99.90;;;;;;6320725;22;19910;-81
2021/07/10 04:10:44;;;;;;;;;;;14.30;99.90;;;;;;6310554;22;19914;-81
2021/07/10 04:13:11;;;;;;;;;;;14.40;99.90;;;;;;6310036;22;19941;-81
2021/07/10 04:15:36;;;;;;;;;;;14.50;99.90;;;;;;6321097;22;19944;-81
2021/07/10 04:18:02;;;;;;;;;;;14.50;99.90;;;;;;6348154;22;19921;-81
2021/07/10 04:20:28;;;;;;;;;;;14.50;99.90;;;;;;6309589;22;19910;-80
2021/07/10 04:22:54;;;;;;;;;;;14.50;99.90;;;;;;6338319;22;19914;-81
2021/07/10 04:25:19;;;;;;;;;;;14.50;99.90;;;;;;6321308;22;19918;-81
2021/07/10 04:27:46;;;;;;;;;;;14.50;99.90;;;;;;6348545;22;19937;-81
2021/07/10 04:30:13;;;;;;;;;;;14.60;99.90;;;;;;6348058;22;19910;-81
2021/07/10 04:32:38;;;;;;;;;;;14.70;99.90;;;;;;6320386;22;19910;-81
2021/07/10 04:35:05;;;;;;;;;;;14.80;99.90;;;;;;6310374;22;19955;-81
2021/07/10 04:37:31;;;;;;;;;;;14.80;99.90;;;;;;6339516;22;20315;-81
2021/07/10 04:39:56;;;;;;;;;;;15.10;99.90;;;;;;6348556;22;19997;-81
2021/07/10 04:42:24;;;;;;;;;;;15.50;99.90;;;;;;6320611;22;19915;-81
2021/07/10 04:44:49;;;;;;;;;;;15.70;99.90;;;;;;6337483;22;19911;-81
2021/07/10 04:47:15;;;;;;;;;;;16.30;99.90;;;;;;6309443;22;19921;-81
2021/07/10 04:49:41;;;;;;;;;;;16.90;99.90;;;;;;6284333;22;19957;-81
2021/07/10 04:52:07;;;;;;;;;;;17.30;99.90;;;;;;6338495;22;19946;-81
2021/07/10 04:54:32;;;;;;;;;;;17.70;99.90;;;;;;6309982;22;20311;-81
2021/07/10 04:56:58;;;;;;;;;;;18.00;99.90;;;;;;6310462;22;19985;-81
2021/07/10 04:59:24;;;;;;;;;;;18.20;99.90;;;;;;6309995;22;19983;-81
2021/07/10 05:01:49;;;;;;;;;;;18.40;99.90;;;;;;6320249;22;20008;-81
2021/07/10 05:04:15;;;;;;;;;;;17.90;99.90;;;;;;6341866;22;19936;-80
2021/07/10 05:06:41;;;;;;;;;;;17.50;99.90;;;;;;6258845;22;20008;-81
2021/07/10 05:09:06;;;;;;;;;;;17.10;99.90;;;;;;6320834;22;20234;-81
2021/07/10 05:11:32;;;;;;;;;;;16.80;99.90;;;;;;6350488;22;20319;-81
2021/07/10 05:13:59;;;;;;;;;;;16.70;99.90;;;;;;6312806;22;20322;-81
2021/07/10 05:16:25;;;;;;;;;;;16.40;99.90;;;;;;6349885;22;19959;-81
2021/07/10 05:18:51;;;;;;;;;;;16.30;99.90;;;;;;6339731;22;19914;-81
2021/07/10 05:21:19;;;;;;;;;;;16.20;99.90;;;;;;6350413;22;20314;-81
2021/07/10 05:23:45;;;;;;;;;;;16.20;99.90;;;;;;6322411;22;19918;-81
2021/07/10 05:26:11;;;;;;;;;;;16.20;99.90;;;;;;6312477;22;19911;-81
2021/07/10 05:28:40;;;;;;;;;;;16.20;99.90;;;;;;6322499;22;20291;-81
2021/07/10 05:31:05;;;;;;;;;;;16.20;99.90;;;;;;6350408;22;20246;-81
2021/07/10 05:33:31;;;;;;;;;;;16.20;99.90;;;;;;6339373;22;19918;-81
2021/07/10 05:35:56;;;;;;;;;;;16.10;99.90;;;;;;6311846;22;19910;-81
2021/07/10 05:38:23;;;;;;;;;;;16.10;99.90;;;;;;6312217;22;19914;-81
2021/07/10 05:40:48;;;;;;;;;;;16.20;99.90;;;;;;6322547;22;20223;-81
2021/07/10 05:43:15;;;;;;;;;;;16.30;99.90;;;;;;6350304;22;19939;-81
2021/07/10 05:45:43;;;;;;;;;;;16.30;99.90;;;;;;6312873;22;19910;-81
2021/07/10 05:48:09;;;;;;;;;;;16.30;99.90;;;;;;6311490;22;19910;-81
2021/07/10 05:50:34;;;;;;;;;;;16.30;99.90;;;;;;6312034;22;19914;-81
2021/07/10 05:53:00;;;;;;;;;;;16.40;99.90;;;;;;6311305;22;20311;-81
2021/07/10 05:55:26;;;;;;;;;;;16.50;99.90;;;;;;6322599;22;20353;-81
2021/07/10 05:57:51;;;;;;;;;;;16.50;99.90;;;;;;6311432;22;19910;-81
2021/07/10 06:00:17;;;;;;;;;;;16.50;99.90;;;;;;6284926;22;19933;-81
2021/07/10 06:02:43;;;;;;;;;;;16.70;99.90;;;;;;6311511;22;19914;-81
2021/07/10 06:05:09;;;;;;;;;;;16.70;99.90;;;;;;6310611;22;19914;-81
2021/07/10 06:07:39;;;;;;;;;;;16.60;99.90;;;;;;6322182;22;19915;-82
2021/07/10 06:10:06;;;;;;;;;;;16.80;99.90;;;;;;6349666;22;20008;-81
2021/07/10 06:12:33;;;;;;;;;;;16.80;99.90;;;;;;6311974;22;20334;-81
2021/07/10 06:14:58;;;;;;;;;;;17.00;99.90;;;;;;6311610;22;19922;-79
2021/07/10 06:17:26;;;;;;;;;;;17.10;99.90;;;;;;6321830;22;20442;-79
2021/07/10 06:19:53;;;;;;;;;;;17.10;99.90;;;;;;6311532;22;19949;-80
2021/07/10 06:22:19;;;;;;;;;;;17.20;99.90;;;;;;6310746;22;19911;-77
2021/07/10 06:24:45;;;;;;;;;;;17.20;99.90;;;;;;6338237;22;19938;-78
2021/07/10 06:27:11;;;;;;;;;;;17.20;99.90;;;;;;6311040;22;19930;-78
2021/07/10 06:29:38;;;;;;;;;;;17.30;99.90;;;;;;6320661;22;19931;-78
2021/07/10 06:32:07;;;;;;;;;;;17.40;99.90;;;;;;6347827;22;20044;-78
2021/07/10 06:34:33;;;;;;;;;;;17.50;99.90;;;;;;6337520;22;20242;-77
2021/07/10 06:37:01;;;;;;;;;;;17.50;99.90;;;;;;6313690;22;19953;-77
2021/07/10 06:39:26;;;;;;;;;;;17.50;99.90;;;;;;6310051;22;19911;-77
2021/07/10 06:41:52;;;;;;;;;;;17.40;99.90;;;;;;6283092;22;19918;-77
2021/07/10 06:44:17;;;;;;;;;;;17.50;99.90;;;;;;6349042;22;19960;-77
2021/07/10 06:46:43;;;;;;;;;;;17.60;99.90;;;;;;6348380;22;19914;-76
2021/07/10 06:49:09;;;;;;;;;;;17.70;99.90;;;;;;6348485;22;19992;-77
2021/07/10 06:51:34;;;;;;;;;;;17.80;99.90;;;;;;6349705;22;19914;-76
2021/07/10 06:54:00;;;;;;;;;;;17.80;99.90;;;;;;6283985;22;20000;-77
2021/07/10 06:56:26;;;;;;;;;;;17.70;99.90;;;;;;6349685;22;19936;-78
2021/07/10 06:58:52;;;;;;;;;;;17.90;99.90;;;;;;6349240;22;19934;-79
2021/07/10 07:01:18;;;;;;;;;;;18.20;99.90;;;;;;6310743;22;20326;-79
2021/07/10 07:03:43;;;;;;;;;;;18.10;99.90;;;;;;6285593;22;19910;-80
2021/07/10 07:06:09;;;;;;;;;;;18.30;99.90;;;;;;6310426;22;20330;-79
2021/07/10 07:08:35;;;;;;;;;;;18.40;99.90;;;;;;6349031;22;19967;-78
2021/07/10 07:11:00;;;;;;;;;;;18.60;99.90;;;;;;6339758;22;19910;-77
2021/07/10 07:13:26;;;;;;;;;;;18.90;99.90;;;;;;6349337;22;19910;-78
2021/07/10 07:15:52;;;;;;;;;;;19.00;99.90;;;;;;6349448;22;19914;-78
2021/07/10 07:18:17;;;;;;;;;;;18.90;99.90;;;;;;6348882;22;19993;-79
2021/07/10 07:20:44;;;;;;;;;;;19.00;99.90;;;;;;6342364;22;19915;-79
2021/07/10 07:23:10;;;;;;;;;;;19.00;99.90;;;;;;6310888;22;20345;-79
2021/07/10 07:25:36;;;;;;;;;;;19.20;99.90;;;;;;6338197;22;20224;-78
2021/07/10 07:28:01;;;;;;;;;;;19.00;99.90;;;;;;6310907;22;19914;-78
2021/07/10 07:30:27;;;;;;;;;;;19.20;99.90;;;;;;6311093;22;19910;-78
2021/07/10 07:32:53;;;;;;;;;;;19.30;99.90;;;;;;6284203;22;19911;-80
2021/07/10 07:35:19;;;;;;;;;;;19.30;99.90;;;;;;6310670;22;19910;-79
2021/07/10 07:37:45;;;;;;;;;;;19.50;99.90;;;;;;6309666;22;19918;-78
2021/07/10 07:40:14;;;;;;;;;;;19.40;99.90;;;;;;6310382;22;19974;-78
2021/07/10 07:42:40;;;;;;;;;;;19.90;99.90;;;;;;6321055;22;19999;-76
2021/07/10 07:45:06;;;;;;;;;;;19.80;99.90;;;;;;6311540;22;19958;-77
2021/07/10 07:47:32;;;;;;;;;;;19.90;99.90;;;;;;6336839;22;20342;-76
2021/07/10 07:49:58;;;;;;;;;;;19.90;99.90;;;;;;6309837;22;19930;-78
2021/07/10 07:52:23;;;;;;;;;;;19.70;99.90;;;;;;6349367;22;19911;-79
2021/07/10 07:54:49;;;;;;;;;;;20.00;99.90;;;;;;6311600;22;19910;-79
2021/07/10 07:57:15;;;;;;;;;;;19.80;99.90;;;;;;6349303;22;19994;-78
2021/07/10 07:59:40;;;;;;;;;;;19.70;99.90;;;;;;6311250;22;20230;-79
2021/07/10 08:02:08;;;;;;;;;;;19.90;99.90;;;;;;6310822;22;19910;-79
2021/07/10 08:04:35;;;;;;;;;;;20.10;99.90;;;;;;6311496;22;19934;-80
2021/07/10 08:07:00;;;;;;;;;;;19.90;99.90;;;;;;6310693;22;19911;-79
2021/07/10 08:09:26;;;;;;;;;;;19.70;99.90;;;;;;6310738;22;20299;-79
2021/07/10 08:11:52;;;;;;;;;;;19.60;99.90;;;;;;6339016;22;19914;-79
2021/07/10 08:14:18;;;;;;;;;;;19.80;99.90;;;;;;6309834;22;20273;-79
2021/07/10 08:16:43;;;;;;;;;;;20.10;99.90;;;;;;6310428;22;20273;-79
2021/07/10 08:19:09;;;;;;;;;;;20.10;99.90;;;;;;6309826;22;19911;-79
2021/07/10 08:21:35;;;;;;;;;;;20.10;99.90;;;;;;6348314;22;20303;-79
2021/07/10 08:24:03;;;;;;;;;;;20.20;99.90;;;;;;6310532;22;19917;-81
2021/07/10 08:26:29;;;;;;;;;;;20.50;99.90;;;;;;6337934;22;19938;-79
2021/07/10 08:28:56;;;;;;;;;;;20.70;99.90;;;;;;6311030;22;20315;-79
2021/07/10 08:31:22;;;;;;;;;;;20.50;99.90;;;;;;6347830;22;19914;-78
2021/07/10 08:33:47;;;;;;;;;;;20.60;99.90;;;;;;6310644;22;19911;-77
2021/07/10 08:36:13;;;;;;;;;;;20.50;99.90;;;;;;6341213;22;19914;-80
2021/07/10 08:38:39;;;;;;;;;;;20.60;99.90;;;;;;6321421;22;19911;-77
2021/07/10 08:41:08;;;;;;;;;;;20.50;99.90;;;;;;6310675;22;19919;-77
2021/07/10 08:43:34;;;;;;;;;;;20.50;99.90;;;;;;6348631;22;19959;-77
2021/07/10 08:46:02;;;;;;;;;;;20.50;99.90;;;;;;6337934;22;19921;-79
2021/07/10 08:48:28;;;;;;;;;;;20.40;99.90;;;;;;6309687;22;19941;-78
2021/07/10 08:50:53;;;;;;;;;;;20.40;99.90;;;;;;6337865;22;19956;-77
2021/07/10 08:53:20;;;;;;;;;;;20.60;99.90;;;;;;6350052;22;20314;-78
2021/07/10 08:55:50;;;;;;;;;;;20.70;99.90;;;;;;6313181;22;19910;-77
2021/07/10 08:58:16;;;;;;;;;;;20.50;99.90;;;;;;6311558;22;19914;-77
2021/07/10 09:00:42;;;;;;;;;;;20.60;99.90;;;;;;6349233;22;19915;-77
2021/07/10 09:03:08;;;;;;;;;;;20.50;99.90;;;;;;6337562;22;20233;-77
2021/07/10 09:05:34;;;;;;;;;;;20.40;99.90;;;;;;6345194;22;20017;-75
2021/07/10 09:08:11;;;;;;;;;;;20.80;99.90;;;;;;6349070;22;19918;-76
2021/07/10 09:10:37;;;;;;;;;;;20.80;99.90;;;;;;6310546;22;20273;-76
2021/07/10 09:13:03;;;;;;;;;;;20.60;99.90;;;;;;6347674;22;19963;-77
2021/07/10 09:15:29;;;;;;;;;;;20.80;99.90;;;;;;6308596;22;19914;-76
2021/07/10 09:17:54;;;;;;;;;;;20.50;99.90;;;;;;6310390;22;19956;-76
2021/07/10 09:20:24;;;;;;;;;;;20.50;99.90;;;;;;6309967;22;19945;-75
2021/07/10 09:22:51;;;;;;;;;;;20.50;99.90;;;;;;6341143;22;20352;-77
2021/07/10 09:25:24;;;;;;;;;;;20.60;99.90;;;;;;6322001;22;20333;-77
2021/07/10 09:27:54;;;;;;;;;;;20.90;99.90;;;;;;6348296;22;19910;-77
2021/07/10 09:30:29;;;;;;;;;;;21.30;99.90;;;;;;6347646;22;20323;-77
2021/07/10 09:33:11;;;;;;;;;;;21.80;99.90;;;;;;6309005;22;19914;-75
2021/07/10 09:35:47;;;;;;;;;;;21.90;99.90;;;;;;6343866;22;19910;-76
2021/07/10 09:38:23;;;;;;;;;;;22.00;99.90;;;;;;6309782;22;19918;-78
2021/07/10 09:41:01;;;;;;;;;;;21.80;99.90;;;;;;6337990;22;19917;-78
2021/07/10 09:43:28;;;;;;;;;;;22.00;99.90;;;;;;6309834;22;19924;-77
2021/07/10 09:45:55;;;;;;;;;;;22.50;99.90;;;;;;6308065;22;19922;-76
2021/07/10 09:48:25;;;;;;;;;;;22.80;99.90;;;;;;6337420;22;19911;-76
2021/07/10 09:50:51;;;;;;;;;;;22.60;99.90;;;;;;6309648;22;20330;-77
2021/07/10 09:53:27;;;;;;;;;;;22.60;99.90;;;;;;6348540;22;19942;-78
2021/07/10 09:56:09;;;;;;;;;;;22.80;99.90;;;;;;6285111;22;20310;-77
2021/07/10 09:58:35;;;;;;;;;;;22.90;99.90;;;;;;6311384;22;19919;-76
2021/07/10 10:01:19;;;;;;;;;;;22.90;99.90;;;;;;6350193;22;19917;-77
2021/07/10 10:03:45;;;;;;;;;;;22.90;99.90;;;;;;6311368;22;19934;-79
2021/07/10 10:06:29;;;;;;;;;;;23.10;99.90;;;;;;6339524;22;19911;-79
2021/07/10 10:08:56;;;;;;;;;;;23.20;99.90;;;;;;6321648;22;19918;-79
2021/07/10 10:11:22;;;;;;;;;;;23.20;99.90;;;;;;6310832;22;19910;-78
2021/07/10 10:13:47;;;;;;;;;;;22.80;99.90;;;;;;6349559;22;19910;-78
2021/07/10 10:16:15;;;;;;;;;;;22.30;99.90;;;;;;6350096;22;20298;-78
2021/07/10 10:18:42;;;;;;;;;;;22.20;99.90;;;;;;6350227;22;19964;-78
2021/07/10 10:21:08;;;;;;;;;;;22.30;99.90;;;;;;6339536;22;19921;-78
2021/07/10 10:23:35;;;;;;;;;;;22.60;99.90;;;;;;6350061;22;19914;-78
2021/07/10 10:26:01;;;;;;;;;;;22.50;99.90;;;;;;6312795;22;19975;-78
2021/07/10 10:28:27;;;;;;;;;;;22.10;99.90;;;;;;6351158;22;19989;-78
2021/07/10 10:30:55;;;;;;;;;;;22.00;99.90;;;;;;6311796;22;19945;-78
2021/07/10 10:33:21;;;;;;;;;;;22.00;99.90;;;;;;6311091;22;19935;-78
2021/07/10 10:35:47;;;;;;;;;;;22.30;99.90;;;;;;6312082;22;19987;-78
2021/07/10 10:38:13;;;;;;;;;;;22.60;99.90;;;;;;6339466;22;20386;-79
2021/07/10 10:40:39;;;;;;;;;;;22.90;99.90;;;;;;6311587;22;20010;-78
2021/07/10 10:43:05;;;;;;;;;;;23.10;99.90;;;;;;6349807;22;20005;-78
2021/07/10 10:45:32;;;;;;;;;;;23.40;99.90;;;;;;6350613;22;20246;-78
2021/07/10 10:47:58;;;;;;;;;;;23.30;99.90;;;;;;6311823;22;20327;-78
2021/07/10 10:50:28;;;;;;;;;;;23.20;99.90;;;;;;6347000;22;19961;-78
2021/07/10 10:52:56;;;;;;;;;;;22.70;99.90;;;;;;6349736;22;20342;-78
2021/07/10 10:55:28;;;;;;;;;;;22.90;99.90;;;;;;6311646;22;20309;-78
2021/07/10 10:57:53;;;;;;;;;;;23.50;99.90;;;;;;6322300;22;19963;-78
2021/07/10 11:00:28;;;;;;;;;;;23.90;99.90;;;;;;6339452;22;20231;-77
2021/07/10 11:02:54;;;;;;;;;;;24.20;99.90;;;;;;6309821;22;20253;-77
2021/07/10 11:05:29;;;;;;;;;;;24.30;99.90;;;;;;6311091;22;19915;-77
2021/07/10 11:08:15;;;;;;;;;;;24.20;99.90;;;;;;6348347;22;20245;-77
2021/07/10 11:10:41;;;;;;;;;;;23.80;99.90;;;;;;6262359;22;19910;-77
2021/07/10 11:13:25;;;;;;;;;;;23.70;99.90;;;;;;6311174;22;19944;-77
2021/07/10 11:16:02;;;;;;;;;;;23.50;99.90;;;;;;6310723;22;19911;-79
2021/07/10 11:18:29;;;;;;;;;;;23.30;99.90;;;;;;6309908;22;19937;-77
2021/07/10 11:20:55;;;;;;;;;;;23.80;99.90;;;;;;6344689;22;19914;-78
2021/07/10 11:23:26;;;;;;;;;;;24.30;99.90;;;;;;6349392;22;20001;-79
2021/07/10 11:25:55;;;;;;;;;;;24.10;99.90;;;;;;6311173;22;20335;-76
2021/07/10 11:28:22;;;;;;;;;;;24.00;99.90;;;;;;6336850;22;19918;-78
2021/07/10 11:30:50;;;;;;;;;;;24.00;99.90;;;;;;6309997;22;19911;-81
2021/07/10 11:33:15;;;;;;;;;;;23.70;99.90;;;;;;6309481;22;19915;-80
2021/07/10 11:35:46;;;;;;;;;;;24.00;99.90;;;;;;6310380;22;19918;-81
2021/07/10 11:38:31;;;;;;;;;;;24.00;99.90;;;;;;6321117;22;20313;-79
2021/07/10 11:41:00;;;;;;;;;;;24.00;99.90;;;;;;6310594;22;19916;-78
2021/07/10 11:43:46;;;;;;;;;;;24.10;99.90;;;;;;6349255;22;20001;-80
2021/07/10 11:46:11;;;;;;;;;;;24.00;99.90;;;;;;6338329;22;20230;-79
2021/07/10 11:48:37;;;;;;;;;;;24.00;99.90;;;;;;6310279;22;19914;-79
2021/07/10 11:51:05;;;;;;;;;;;24.20;99.90;;;;;;6309744;22;19968;-77
2021/07/10 11:53:31;;;;;;;;;;;24.10;99.90;;;;;;6309988;22;19910;-78
2021/07/10 11:55:58;;;;;;;;;;;24.30;99.90;;;;;;6309673;22;19915;-78
2021/07/10 11:58:24;;;;;;;;;;;24.40;99.90;;;;;;6347939;22;19910;-78
2021/07/10 12:00:50;;;;;;;;;;;24.10;99.90;;;;;;6335740;22;20338;-78
2021/07/10 12:03:15;;;;;;;;;;;24.20;99.90;;;;;;6307548;22;19918;-78
2021/07/10 12:05:41;;;;;;;;;;;24.20;99.90;;;;;;6282302;22;20282;-78
2021/07/10 12:08:07;;;;;;;;;;;24.20;99.90;;;;;;6309788;22;19975;-78
2021/07/10 12:10:35;;;;;;;;;;;24.00;99.90;;;;;;6348353;22;19910;-78
2021/07/10 12:13:07;;;;;;;;;;;23.90;99.90;;;;;;6337473;22;19910;-78
2021/07/10 12:15:34;;;;;;;;;;;23.50;99.90;;;;;;6320183;22;19918;-79
2021/07/10 12:18:01;;;;;;;;;;;23.80;99.90;;;;;;6338067;22;19981;-78
2021/07/10 12:20:29;;;;;;;;;;;24.00;99.90;;;;;;6336903;22;19918;-79
2021/07/10 12:22:59;;;;;;;;;;;24.30;99.90;;;;;;6310172;22;19934;-78
2021/07/10 12:25:28;;;;;;;;;;;24.60;99.90;;;;;;6310506;22;19942;-79
2021/07/10 12:27:56;;;;;;;;;;;25.10;99.90;;;;;;6337094;22;19915;-78
2021/07/10 12:30:40;;;;;;;;;;;25.50;99.90;;;;;;6348542;22;19964;-78
2021/07/10 12:33:25;;;;;;;;;;;25.50;99.90;;;;;;6346854;22;19921;-78
2021/07/10 12:36:05;;;;;;;;;;;25.00;99.70;;;;;;6316455;22;19915;-79
2021/07/10 12:38:31;;;;;;;;;;;25.00;99.90;;;;;;6320453;22;20224;-78
2021/07/10 12:41:16;;;;;;;;;;;24.70;99.70;;;;;;6337001;22;19953;-77
2021/07/10 12:43:41;;;;;;;;;;;24.80;99.90;;;;;;6319432;22;19917;-78
2021/07/10 12:46:07;;;;;;;;;;;24.80;99.90;;;;;;6336912;22;19911;-78
2021/07/10 12:48:33;;;;;;;;;;;24.60;99.90;;;;;;6336740;22;19914;-77
2021/07/10 12:51:00;;;;;;;;;;;24.90;99.90;;;;;;6308838;22;19938;-78
2021/07/10 12:53:31;;;;;;;;;;;25.00;99.90;;;;;;6320904;22;19921;-77
2021/07/10 12:56:12;;;;;;;;;;;25.10;99.40;;;;;;6347994;22;20287;-78
2021/07/10 12:58:39;;;;;;;;;;;24.90;99.00;;;;;;6309116;22;19981;-78
2021/07/10 13:01:05;;;;;;;;;;;25.00;99.90;;;;;;6309558;22;19922;-78
2021/07/10 13:03:32;;;;;;;;;;;25.30;99.70;;;;;;6283822;22;20027;-76
2021/07/10 13:06:02;;;;;;;;;;;25.50;99.80;;;;;;6345944;22;19948;-80
2021/07/10 13:08:29;;;;;;;;;;;25.80;99.30;;;;;;6310691;22;20040;-78
2021/07/10 13:11:00;;;;;;;;;;;25.10;99.10;;;;;;6338367;22;19910;-78
2021/07/10 13:13:27;;;;;;;;;;;25.30;99.20;;;;;;6309945;22;19910;-78
2021/07/10 13:15:57;;;;;;;;;;;25.60;99.70;;;;;;6338358;22;19910;-78
2021/07/10 13:18:26;;;;;;;;;;;25.60;99.00;;;;;;6347700;22;19911;-78
2021/07/10 13:21:01;;;;;;;;;;;25.20;98.80;;;;;;6309829;22;19914;-78
2021/07/10 13:23:32;;;;;;;;;;;24.90;98.70;;;;;;6348444;22;20366;-78
2021/07/10 13:25:57;;;;;;;;;;;24.40;99.20;;;;;;6347619;22;19933;-78
2021/07/10 13:28:23;;;;;;;;;;;24.70;98.80;;;;;;6338675;22;19915;-78
2021/07/10 13:30:49;;;;;;;;;;;24.50;99.10;;;;;;6310948;22;19940;-76
2021/07/10 13:33:26;;;;;;;;;;;24.90;99.90;;;;;;6339551;22;20416;-79
2021/07/10 13:36:02;;;;;;;;;;;25.10;99.40;;;;;;6340086;22;19945;-76
2021/07/10 13:38:31;;;;;;;;;;;25.50;99.90;;;;;;6350480;22;20295;-77
2021/07/10 13:41:09;;;;;;;;;;;25.30;98.70;;;;;;6340589;22;19910;-78
2021/07/10 13:43:35;;;;;;;;;;;25.00;98.50;;;;;;6312731;22;19990;-79
2021/07/10 13:46:08;;;;;;;;;;;24.60;98.80;;;;;;6352747;22;20257;-76
2021/07/10 13:48:33;;;;;;;;;;;24.60;99.90;;;;;;6349440;22;19917;-77
2021/07/10 13:51:03;;;;;;;;;;;24.70;99.40;;;;;;6348885;22;19910;-77
2021/07/10 13:53:28;;;;;;;;;;;24.90;99.80;;;;;;6340253;22;19910;-76
2021/07/10 13:55:54;;;;;;;;;;;24.70;99.50;;;;;;6339939;22;19978;-76
2021/07/10 13:58:24;;;;;;;;;;;24.80;99.40;;;;;;6350185;22;20327;-78
2021/07/10 14:00:50;;;;;;;;;;;24.50;99.20;;;;;;6311587;22;20265;-77
2021/07/10 14:03:16;;;;;;;;;;;24.60;99.90;;;;;;6347567;22;19914;-79
2021/07/10 14:05:44;;;;;;;;;;;24.60;99.90;;;;;;6311671;22;19914;-77
2021/07/10 14:08:14;;;;;;;;;;;24.70;99.90;;;;;;6350146;22;19911;-80
2021/07/10 14:10:40;;;;;;;;;;;24.70;99.90;;;;;;6350792;22;19933;-77
2021/07/10 14:13:23;;;;;;;;;;;24.50;98.80;;;;;;6310863;22;19914;-79
2021/07/10 14:15:50;;;;;;;;;;;24.30;99.20;;;;;;6311477;22;19945;-80
2021/07/10 14:18:16;;;;;;;;;;;23.90;99.90;;;;;;6310811;22;20043;-78